createdAt,value
2023-05-09T00:01:47.276Z,1.00
2023-05-09T00:04:15.989Z,19.50
2023-05-09T00:06:43.329Z,25.20
2023-05-09T00:09:10.371Z,6.10
2023-05-09T00:11:37.812Z,1.00
2023-05-09T00:14:05.002Z,1.00
2023-05-09T00:16:33.159Z,99.90
2023-05-09T00:19:00.299Z,99.90
2023-05-09T00:21:28.315Z,1.00
2023-05-09T00:23:55.713Z,99.90
2023-05-09T00:26:23.466Z,99.90
2023-05-09T00:28:50.682Z,1.00
2023-05-09T00:31:17.973Z,99.90
2023-05-09T00:33:45.014Z,99.90
2023-05-09T00:36:12.471Z,1.00
2023-05-09T00:38:39.425Z,99.90
2023-05-09T00:41:06.733Z,18.30
2023-05-09T00:43:33.936Z,1.00
2023-05-09T00:46:01.478Z,99.90
2023-05-09T00:48:29.111Z,99.90
2023-05-09T00:50:56.678Z,1.00
2023-05-09T00:53:25.429Z,99.90
2023-05-09T00:55:55.490Z,99.90
2023-05-09T00:58:22.618Z,99.90
2023-05-09T01:00:50.215Z,99.90
2023-05-09T01:03:18.028Z,99.90
2023-05-09T01:05:51.409Z,99.90
2023-05-09T01:08:25.577Z,99.90
2023-05-09T01:11:01.155Z,99.90
2023-05-09T01:13:38.192Z,99.90
2023-05-09T01:16:51.039Z,99.90
2023-05-09T01:19:27.521Z,99.90
2023-05-09T01:21:56.603Z,1.00
2023-05-09T01:24:45.157Z,1.00
2023-05-09T01:27:39.402Z,1.00
2023-05-09T01:30:08.299Z,1.00
2023-05-09T01:32:37.831Z,1.00
2023-05-09T01:35:06.123Z,1.00
2023-05-09T01:37:36.324Z,99.90
2023-05-09T01:40:16.763Z,99.90
2023-05-09T01:42:51.183Z,1.00
2023-05-09T01:45:19.534Z,1.00
2023-05-09T01:47:49.067Z,1.00
2023-05-09T01:50:18.910Z,1.00
2023-05-09T01:52:49.737Z,1.00
2023-05-09T01:55:19.983Z,1.00
2023-05-09T01:57:48.648Z,1.00
2023-05-09T02:00:16.574Z,1.00
2023-05-09T02:02:45.958Z,1.00
2023-05-09T02:05:15.801Z,1.00
2023-05-09T02:07:44.123Z,1.00
2023-05-09T02:10:12.020Z,1.00
2023-05-09T02:12:40.286Z,1.00
2023-05-09T02:15:08.848Z,12.20
2023-05-09T02:17:40.473Z,21.20
2023-05-09T02:20:10.134Z,5.60
2023-05-09T02:22:39.581Z,1.00
2023-05-09T02:25:08.093Z,1.00
2023-05-09T02:27:35.708Z,1.00
2023-05-09T02:30:07.383Z,99.90
2023-05-09T02:32:36.971Z,99.90
2023-05-09T02:35:06.459Z,99.90
2023-05-09T02:37:34.203Z,99.90
2023-05-09T02:40:01.561Z,99.90
2023-05-09T02:42:30.184Z,99.90
2023-05-09T02:44:57.335Z,1.00
2023-05-09T02:47:25.754Z,1.00
2023-05-09T02:49:52.918Z,1.00
2023-05-09T02:52:20.174Z,1.00
2023-05-09T02:54:48.269Z,1.00
2023-05-09T02:57:15.771Z,6.70
2023-05-09T02:59:42.771Z,1.00
2023-05-09T03:02:10.146Z,1.00
2023-05-09T03:04:37.594Z,99.90
2023-05-09T03:07:05.053Z,99.90
2023-05-09T03:09:33.829Z,99.90
2023-05-09T03:12:02.566Z,91.10
2023-05-09T03:14:29.753Z,25.10
2023-05-09T03:16:57.136Z,17.50
2023-05-09T03:19:32.953Z,10.60
2023-05-09T03:22:00.236Z,73.20
2023-05-09T03:24:28.876Z,66.50
2023-05-09T03:26:56.224Z,63.90
2023-05-09T03:29:23.403Z,1.00
2023-05-09T03:31:51.136Z,99.90
2023-05-09T03:34:18.316Z,99.90
2023-05-09T03:36:45.953Z,99.90
2023-05-09T03:39:15.119Z,99.90
2023-05-09T03:41:45.339Z,99.90
2023-05-09T03:44:13.118Z,99.90
2023-05-09T03:46:40.671Z,99.90
2023-05-09T03:49:08.105Z,99.90
2023-05-09T03:51:36.807Z,99.90
2023-05-09T03:54:06.608Z,1.00
2023-05-09T03:56:34.610Z,99.90
2023-05-09T03:59:01.613Z,99.90
2023-05-09T04:01:29.869Z,99.90
2023-05-09T04:03:58.956Z,99.90
2023-05-09T04:06:28.304Z,99.90
2023-05-09T04:08:55.446Z,99.90
2023-05-09T04:11:22.765Z,99.90
2023-05-09T04:13:50.350Z,99.90
2023-05-09T04:16:26.424Z,99.90
2023-05-09T04:18:54.176Z,99.90
2023-05-09T04:21:21.753Z,99.90
2023-05-09T04:23:51.539Z,99.90
2023-05-09T04:26:24.760Z,99.90
2023-05-09T04:28:55.200Z,99.90
2023-05-09T04:31:23.305Z,99.90
2023-05-09T04:33:52.194Z,99.90
2023-05-09T04:36:19.990Z,99.90
2023-05-09T04:38:47.383Z,99.90
2023-05-09T04:41:18.445Z,99.90
2023-05-09T04:43:45.956Z,99.90
2023-05-09T04:46:13.470Z,99.90
2023-05-09T04:48:41.520Z,99.90
2023-05-09T04:51:08.976Z,99.90
2023-05-09T04:53:36.201Z,99.90
2023-05-09T04:56:03.947Z,99.90
2023-05-09T04:58:33.336Z,99.90
2023-05-09T05:01:00.959Z,99.90
2023-05-09T05:03:30.523Z,99.90
2023-05-09T05:05:58.136Z,99.90
2023-05-09T05:08:25.460Z,99.90
2023-05-09T05:10:52.927Z,99.90
2023-05-09T05:13:23.005Z,99.90
2023-05-09T05:15:54.887Z,99.90
2023-05-09T05:18:22.486Z,99.90
2023-05-09T05:20:49.943Z,99.90
2023-05-09T05:23:18.295Z,99.90
2023-05-09T05:25:45.920Z,99.90
2023-05-09T05:28:14.465Z,99.90
2023-05-09T05:30:42.403Z,99.90
2023-05-09T05:33:09.625Z,99.90
2023-05-09T05:35:37.020Z,99.90
2023-05-09T05:38:04.494Z,99.90
2023-05-09T05:40:32.111Z,99.90
2023-05-09T05:43:02.727Z,99.90
2023-05-09T05:45:31.813Z,99.90
2023-05-09T05:48:02.487Z,99.90
2023-05-09T05:50:31.468Z,99.90
2023-05-09T05:52:58.660Z,99.90
2023-05-09T05:55:25.945Z,99.90
2023-05-09T05:57:53.409Z,99.90
2023-05-09T06:00:20.960Z,99.90
2023-05-09T06:02:55.056Z,99.90
2023-05-09T06:05:30.727Z,99.90
2023-05-09T06:07:57.852Z,99.90
2023-05-09T06:10:25.353Z,99.90
2023-05-09T06:12:52.476Z,99.90
2023-05-09T06:15:19.916Z,99.90
2023-05-09T06:17:49.852Z,99.90
2023-05-09T06:20:17.246Z,99.90
2023-05-09T06:22:44.249Z,99.90
2023-05-09T06:25:11.598Z,99.90
2023-05-09T06:27:38.793Z,99.90
2023-05-09T06:30:23.895Z,99.90
2023-05-09T06:32:52.465Z,99.90
2023-05-09T06:35:19.866Z,99.90
2023-05-09T06:37:48.669Z,99.90
2023-05-09T06:40:17.117Z,99.90
2023-05-09T06:42:44.995Z,99.90
2023-05-09T06:45:12.764Z,99.90
2023-05-09T06:47:40.001Z,99.90
2023-05-09T06:50:08.840Z,99.90
2023-05-09T06:52:35.990Z,99.90
2023-05-09T06:55:04.332Z,99.90
2023-05-09T06:57:32.596Z,99.90
2023-05-09T06:59:59.941Z,99.90
2023-05-09T07:02:27.073Z,99.90
2023-05-09T07:04:54.541Z,99.90
2023-05-09T07:07:22.169Z,99.90
2023-05-09T07:09:52.953Z,99.90
2023-05-09T07:12:25.380Z,99.90
2023-05-09T07:14:52.644Z,99.90
2023-05-09T07:17:23.276Z,99.90
2023-05-09T07:19:51.930Z,99.90
2023-05-09T07:22:19.368Z,99.90
2023-05-09T07:24:47.278Z,99.90
2023-05-09T07:27:14.399Z,99.90
2023-05-09T07:29:41.676Z,99.90
2023-05-09T07:32:08.981Z,99.90
2023-05-09T07:34:36.964Z,99.90
2023-05-09T07:37:06.149Z,99.90
2023-05-09T07:39:33.510Z,99.90
2023-05-09T07:42:00.606Z,99.90
2023-05-09T07:44:30.184Z,99.90
2023-05-09T07:46:59.213Z,99.90
2023-05-09T07:49:26.671Z,99.90
2023-05-09T07:51:53.621Z,99.90
2023-05-09T07:54:20.986Z,99.90
2023-05-09T07:56:47.941Z,99.90
2023-05-09T07:59:15.501Z,99.90
2023-05-09T08:01:42.527Z,99.90
2023-05-09T08:04:10.175Z,99.90
2023-05-09T08:06:37.628Z,99.90
2023-05-09T08:09:04.975Z,99.90
2023-05-09T08:11:36.099Z,99.90
2023-05-09T08:14:03.612Z,99.90
2023-05-09T08:16:30.874Z,99.90
2023-05-09T08:18:58.351Z,99.90
2023-05-09T08:21:28.483Z,99.90
2023-05-09T08:23:56.888Z,99.90
2023-05-09T08:26:23.958Z,99.90
2023-05-09T08:28:51.280Z,99.90
2023-05-09T08:31:18.428Z,99.90
2023-05-09T08:33:45.782Z,99.90
2023-05-09T08:36:12.744Z,99.90
2023-05-09T08:38:40.681Z,99.90
2023-05-09T08:41:07.900Z,99.90
2023-05-09T08:43:36.199Z,99.90
2023-05-09T08:46:09.936Z,99.90
2023-05-09T08:48:38.110Z,99.90
2023-05-09T08:51:06.202Z,99.90
2023-05-09T08:53:34.238Z,99.90
2023-05-09T08:56:02.670Z,99.90
2023-05-09T08:58:34.219Z,99.90
2023-05-09T09:01:06.870Z,99.90
2023-05-09T09:03:34.205Z,99.90
2023-05-09T09:06:01.688Z,99.90
2023-05-09T09:08:30.338Z,99.90
2023-05-09T09:10:57.640Z,99.90
2023-05-09T09:13:26.223Z,99.90
2023-05-09T09:15:54.585Z,99.90
2023-05-09T09:18:27.388Z,99.90
2023-05-09T09:21:09.908Z,99.90
2023-05-09T09:23:40.772Z,99.90
2023-05-09T09:26:08.252Z,99.90
2023-05-09T09:28:35.903Z,99.90
2023-05-09T09:31:22.603Z,99.90
2023-05-09T09:33:51.468Z,99.90
2023-05-09T09:36:29.060Z,99.90
2023-05-09T09:39:01.728Z,99.90
2023-05-09T09:41:38.805Z,99.90
2023-05-09T09:44:11.589Z,99.90
2023-05-09T09:46:52.598Z,99.90
2023-05-09T09:49:25.000Z,99.90
2023-05-09T09:51:54.114Z,99.90
2023-05-09T09:54:26.833Z,99.90
2023-05-09T09:56:54.859Z,99.90
2023-05-09T09:59:28.237Z,99.90
2023-05-09T10:02:04.854Z,99.90
2023-05-09T10:04:38.764Z,99.90
2023-05-09T10:07:13.881Z,99.90
2023-05-09T10:09:44.251Z,99.90
2023-05-09T10:12:14.635Z,99.90
2023-05-09T10:14:43.062Z,99.90
2023-05-09T10:17:14.118Z,99.90
2023-05-09T10:19:46.500Z,99.90
2023-05-09T10:22:16.635Z,99.90
2023-05-09T10:25:15.087Z,99.90
2023-05-09T10:27:46.035Z,99.90
2023-05-09T10:30:23.045Z,99.90
2023-05-09T10:32:54.825Z,99.90
2023-05-09T10:35:29.890Z,99.90
2023-05-09T10:37:57.676Z,99.90
2023-05-09T10:40:28.089Z,99.90
2023-05-09T10:42:57.146Z,99.90
2023-05-09T10:45:24.976Z,99.90
2023-05-09T10:47:53.848Z,99.90
2023-05-09T10:50:21.553Z,99.90
2023-05-09T10:53:14.952Z,99.90
2023-05-09T10:55:58.995Z,99.90
2023-05-09T10:58:28.568Z,99.90
2023-05-09T11:01:01.433Z,99.90
2023-05-09T11:03:57.065Z,99.90
2023-05-09T11:06:43.789Z,99.90
2023-05-09T11:09:28.317Z,99.90
2023-05-09T11:12:14.394Z,99.90
2023-05-09T11:14:49.435Z,99.90
2023-05-09T11:17:23.655Z,99.90
2023-05-09T11:19:52.047Z,99.90
2023-05-09T11:22:21.291Z,99.90
2023-05-09T11:24:59.738Z,99.90
2023-05-09T11:27:39.766Z,99.90
2023-05-09T11:30:08.402Z,99.90
2023-05-09T11:32:43.878Z,99.90
2023-05-09T11:35:19.562Z,99.90
2023-05-09T11:38:01.109Z,99.90
2023-05-09T11:40:29.037Z,99.90
2023-05-09T11:43:00.269Z,99.90
2023-05-09T11:45:29.897Z,99.90
2023-05-09T11:47:58.760Z,99.90
2023-05-09T11:50:25.971Z,99.90
2023-05-09T11:52:54.103Z,99.90
2023-05-09T11:55:22.772Z,99.90
2023-05-09T11:57:52.642Z,99.90
2023-05-09T12:00:23.641Z,99.90
2023-05-09T12:02:51.722Z,99.90
2023-05-09T12:05:20.903Z,99.90
2023-05-09T12:07:48.860Z,99.90
2023-05-09T12:10:19.473Z,99.90
2023-05-09T12:12:50.319Z,99.90
2023-05-09T12:15:18.015Z,99.90
2023-05-09T12:18:03.913Z,99.90
2023-05-09T12:20:58.839Z,99.90
2023-05-09T12:23:26.134Z,99.90
2023-05-09T12:25:54.793Z,99.90
2023-05-09T12:28:24.168Z,99.90
2023-05-09T12:30:52.867Z,99.90
2023-05-09T12:33:21.308Z,99.90
2023-05-09T12:36:08.730Z,99.90
2023-05-09T12:38:37.553Z,99.90
2023-05-09T12:41:15.531Z,99.90
2023-05-09T12:43:53.775Z,99.90
2023-05-09T12:46:23.310Z,99.90
2023-05-09T12:48:51.749Z,99.90
2023-05-09T12:51:22.275Z,99.90
2023-05-09T12:53:50.794Z,99.90
2023-05-09T12:56:23.457Z,99.90
2023-05-09T12:58:56.748Z,99.90
2023-05-09T13:01:30.163Z,99.90
2023-05-09T13:04:02.783Z,99.90
2023-05-09T13:06:30.778Z,99.90
2023-05-09T13:09:00.369Z,99.90
2023-05-09T13:11:27.903Z,99.90
2023-05-09T13:13:55.796Z,99.90
2023-05-09T13:16:23.022Z,99.90
2023-05-09T13:18:50.515Z,99.90
2023-05-09T13:21:17.520Z,99.90
2023-05-09T13:23:45.586Z,99.90
2023-05-09T13:26:13.224Z,99.90
2023-05-09T13:28:40.565Z,99.90
2023-05-09T13:31:08.062Z,99.90
2023-05-09T13:33:35.954Z,99.90
2023-05-09T13:36:03.780Z,99.90
2023-05-09T13:38:32.317Z,99.90
2023-05-09T13:41:00.263Z,99.90
2023-05-09T13:43:27.793Z,99.90
2023-05-09T13:45:57.326Z,99.90
2023-05-09T13:48:24.604Z,99.90
2023-05-09T13:50:53.233Z,99.90
2023-05-09T13:53:20.574Z,99.90
2023-05-09T13:55:47.677Z,99.90
2023-05-09T13:58:16.458Z,99.90
2023-05-09T14:00:43.629Z,99.90
2023-05-09T14:03:10.868Z,99.90
2023-05-09T14:05:37.971Z,99.90
2023-05-09T14:08:06.129Z,99.90
2023-05-09T14:10:33.213Z,99.90
2023-05-09T14:13:00.854Z,99.90
2023-05-09T14:15:30.805Z,99.90
2023-05-09T14:17:58.259Z,99.90
2023-05-09T14:20:25.729Z,99.90
2023-05-09T14:22:55.118Z,99.90
2023-05-09T14:25:22.684Z,99.90
2023-05-09T14:27:49.967Z,99.90
2023-05-09T14:30:18.085Z,99.90
2023-05-09T14:32:45.557Z,99.90
2023-05-09T14:35:12.750Z,99.90
2023-05-09T14:37:42.514Z,99.90
2023-05-09T14:40:10.055Z,99.90
2023-05-09T14:42:37.305Z,99.90
2023-05-09T14:45:05.748Z,99.90
2023-05-09T14:47:33.412Z,99.90
2023-05-09T14:50:04.904Z,99.90
2023-05-09T14:52:32.280Z,99.90
2023-05-09T14:54:59.810Z,99.90
2023-05-09T14:57:27.655Z,99.90
2023-05-09T14:59:55.338Z,99.90
2023-05-09T15:02:27.654Z,99.90
2023-05-09T15:04:56.075Z,99.90
2023-05-09T15:07:23.884Z,99.90
2023-05-09T15:09:50.868Z,99.90
2023-05-09T15:12:18.250Z,99.90
2023-05-09T15:14:45.239Z,99.90
2023-05-09T15:17:15.632Z,99.90
2023-05-09T15:19:42.658Z,99.90
2023-05-09T15:22:10.193Z,99.90
2023-05-09T15:24:37.463Z,99.90
2023-05-09T15:27:04.865Z,99.90
2023-05-09T15:29:31.877Z,99.90
2023-05-09T15:31:59.232Z,99.90
2023-05-09T15:34:26.301Z,99.90
2023-05-09T15:36:53.762Z,99.90
2023-05-09T15:39:20.852Z,99.90
2023-05-09T15:41:48.169Z,99.90
2023-05-09T15:44:15.321Z,99.90
2023-05-09T15:46:42.946Z,99.90
2023-05-09T15:49:11.136Z,99.90
2023-05-09T15:51:38.583Z,99.90
2023-05-09T15:54:06.865Z,99.90
2023-05-09T15:56:34.422Z,99.90
2023-05-09T15:59:03.466Z,99.90
2023-05-09T16:01:32.684Z,99.90
2023-05-09T16:04:02.258Z,99.90
2023-05-09T16:06:29.925Z,99.90
2023-05-09T16:08:57.165Z,99.90
2023-05-09T16:11:24.706Z,99.90
2023-05-09T16:13:51.705Z,99.90
2023-05-09T16:16:19.142Z,99.90
2023-05-09T16:18:48.290Z,99.90
2023-05-09T16:21:15.805Z,99.90
2023-05-09T16:23:42.859Z,99.90
2023-05-09T16:26:10.482Z,99.90
2023-05-09T16:28:42.175Z,99.90
2023-05-09T16:31:09.710Z,99.90
2023-05-09T16:33:38.975Z,99.90
2023-05-09T16:36:06.971Z,99.90
2023-05-09T16:38:34.051Z,99.90
2023-05-09T16:41:01.403Z,99.90
2023-05-09T16:43:30.814Z,99.90
2023-05-09T16:45:58.619Z,99.90
2023-05-09T16:48:25.720Z,99.90
2023-05-09T16:50:53.750Z,99.90
2023-05-09T16:53:22.811Z,99.90
2023-05-09T16:55:50.396Z,99.90
2023-05-09T16:58:17.754Z,99.90
2023-05-09T17:00:45.011Z,99.90
2023-05-09T17:03:13.957Z,99.90
2023-05-09T17:05:44.218Z,99.90
2023-05-09T17:08:11.540Z,99.90
2023-05-09T17:10:40.761Z,99.90
2023-05-09T17:13:11.558Z,99.90
2023-05-09T17:15:39.056Z,99.90
2023-05-09T17:18:06.612Z,99.90
2023-05-09T17:20:34.115Z,99.90
2023-05-09T17:23:01.135Z,99.90
2023-05-09T17:25:28.859Z,99.90
2023-05-09T17:27:55.938Z,99.90
2023-05-09T17:30:23.647Z,99.90
2023-05-09T17:32:51.081Z,99.90
2023-05-09T17:35:20.089Z,99.90
2023-05-09T17:37:47.186Z,99.90
2023-05-09T17:40:14.963Z,99.90
2023-05-09T17:42:42.390Z,99.90
2023-05-09T17:45:12.300Z,99.90
2023-05-09T17:47:39.649Z,99.90
2023-05-09T17:50:07.506Z,99.90
2023-05-09T17:52:34.575Z,99.90
2023-05-09T17:55:02.249Z,99.90
2023-05-09T17:57:29.653Z,99.90
2023-05-09T17:59:57.067Z,99.90
2023-05-09T18:02:25.422Z,99.90
2023-05-09T18:04:53.920Z,99.90
2023-05-09T18:07:20.997Z,99.90
2023-05-09T18:09:48.563Z,99.90
2023-05-09T18:12:16.240Z,99.90
2023-05-09T18:14:44.028Z,99.90
2023-05-09T18:17:11.020Z,99.90
2023-05-09T18:19:41.051Z,99.90
2023-05-09T18:22:08.168Z,99.90
2023-05-09T18:24:36.811Z,99.90
2023-05-09T18:27:04.260Z,99.90
2023-05-09T18:29:31.744Z,99.90
2023-05-09T18:31:58.768Z,99.90
2023-05-09T18:34:28.091Z,99.90
2023-05-09T18:36:57.257Z,99.90
2023-05-09T18:39:24.743Z,99.90
2023-05-09T18:41:52.935Z,99.90
2023-05-09T18:44:20.373Z,99.90
2023-05-09T18:46:47.449Z,99.90
2023-05-09T18:49:17.153Z,99.90
2023-05-09T18:51:44.189Z,99.90
2023-05-09T18:54:13.349Z,99.90
2023-05-09T18:56:41.781Z,99.90
2023-05-09T18:59:12.081Z,99.90
2023-05-09T19:01:39.488Z,99.90
2023-05-09T19:04:07.108Z,99.90
2023-05-09T19:06:35.496Z,99.90
2023-05-09T19:09:04.292Z,99.90
2023-05-09T19:11:35.993Z,99.90
2023-05-09T19:14:03.827Z,99.90
2023-05-09T19:16:31.113Z,99.90
2023-05-09T19:18:58.890Z,99.90
2023-05-09T19:21:25.943Z,99.90
2023-05-09T19:23:53.308Z,99.90
2023-05-09T19:26:21.722Z,99.90
2023-05-09T19:28:49.200Z,99.90
2023-05-09T19:31:16.518Z,99.90
2023-05-09T19:33:47.587Z,99.90
2023-05-09T19:36:14.731Z,99.90
2023-05-09T19:38:41.999Z,99.90
2023-05-09T19:41:12.755Z,99.90
2023-05-09T19:43:40.490Z,99.90
2023-05-09T19:46:07.702Z,99.90
2023-05-09T19:48:35.928Z,99.90
2023-05-09T19:51:08.190Z,99.90
2023-05-09T19:53:38.242Z,99.90
2023-05-09T19:56:07.943Z,99.90
2023-05-09T19:58:36.404Z,99.90
2023-05-09T20:01:32.721Z,99.90
2023-05-09T20:04:00.384Z,99.90
2023-05-09T20:06:27.539Z,99.90
2023-05-09T20:08:58.841Z,99.90
2023-05-09T20:11:25.846Z,99.90
2023-05-09T20:13:53.265Z,99.90
2023-05-09T20:16:21.506Z,99.90
2023-05-09T20:18:51.981Z,99.90
2023-05-09T20:21:19.158Z,99.90
2023-05-09T20:23:46.584Z,99.90
2023-05-09T20:26:13.833Z,99.90
2023-05-09T20:28:41.126Z,99.90
2023-05-09T20:31:08.195Z,99.90
2023-05-09T20:33:37.717Z,99.90
2023-05-09T20:36:06.485Z,99.90
2023-05-09T20:38:33.778Z,99.90
2023-05-09T20:41:01.064Z,99.90
2023-05-09T20:43:31.018Z,99.90
2023-05-09T20:45:58.063Z,99.90
2023-05-09T20:48:25.959Z,99.90
2023-05-09T20:50:53.061Z,99.90
2023-05-09T20:53:20.392Z,99.90
2023-05-09T20:55:49.586Z,99.90
2023-05-09T20:58:17.684Z,99.90
2023-05-09T21:00:47.778Z,99.90
2023-05-09T21:03:15.177Z,99.90
2023-05-09T21:05:45.316Z,99.90
2023-05-09T21:08:12.747Z,99.90
2023-05-09T21:10:39.831Z,99.90
2023-05-09T21:13:07.166Z,99.90
2023-05-09T21:15:34.257Z,99.90
2023-05-09T21:18:01.675Z,99.90
2023-05-09T21:20:28.755Z,99.90
2023-05-09T21:22:55.996Z,99.90
2023-05-09T21:25:23.087Z,99.90
2023-05-09T21:27:50.518Z,99.90
2023-05-09T21:30:17.734Z,99.90
2023-05-09T21:32:45.164Z,99.90
2023-05-09T21:35:13.149Z,99.90
2023-05-09T21:37:40.911Z,99.90
2023-05-09T21:40:08.763Z,99.90
2023-05-09T21:42:37.327Z,99.90
2023-05-09T21:45:05.053Z,99.90
2023-05-09T21:47:32.660Z,99.90
2023-05-09T21:50:00.478Z,99.90
2023-05-09T21:52:27.876Z,99.90
2023-05-09T21:54:55.160Z,99.90
2023-05-09T21:57:22.440Z,99.90
2023-05-09T21:59:49.557Z,99.90
2023-05-09T22:02:17.358Z,99.90
2023-05-09T22:04:44.417Z,99.90
2023-05-09T22:07:12.240Z,99.90
2023-05-09T22:09:39.295Z,99.90
2023-05-09T22:12:06.721Z,99.90
2023-05-09T22:14:37.279Z,99.90
2023-05-09T22:17:12.597Z,99.90
2023-05-09T22:19:40.304Z,99.90
2023-05-09T22:22:07.554Z,99.90
2023-05-09T22:24:34.663Z,99.90
2023-05-09T22:27:02.005Z,99.90
2023-05-09T22:29:29.342Z,99.90
2023-05-09T22:31:57.232Z,99.90
2023-05-09T22:34:24.306Z,99.90
2023-05-09T22:36:51.997Z,99.90
2023-05-09T22:39:19.051Z,99.90
2023-05-09T22:41:46.484Z,99.90
2023-05-09T22:44:13.796Z,99.90
2023-05-09T22:46:41.158Z,99.90
2023-05-09T22:49:08.753Z,99.90
2023-05-09T22:51:36.378Z,99.90
2023-05-09T22:54:03.583Z,99.90
2023-05-09T22:56:30.917Z,99.90
2023-05-09T22:58:58.840Z,99.90
2023-05-09T23:01:27.586Z,99.90
2023-05-09T23:03:54.706Z,99.90
2023-05-09T23:06:22.122Z,99.90
2023-05-09T23:08:49.371Z,99.90
2023-05-09T23:11:16.667Z,99.90
2023-05-09T23:13:43.642Z,99.90
2023-05-09T23:16:10.992Z,99.90
2023-05-09T23:18:38.094Z,99.90
2023-05-09T23:21:06.291Z,99.90
2023-05-09T23:23:33.399Z,99.90
2023-05-09T23:26:00.633Z,99.90
2023-05-09T23:28:27.646Z,99.90
2023-05-09T23:30:55.105Z,99.90
2023-05-09T23:33:22.160Z,99.90
2023-05-09T23:35:49.979Z,99.90
2023-05-09T23:38:17.173Z,99.90
2023-05-09T23:40:46.047Z,99.90
2023-05-09T23:43:13.566Z,99.90
2023-05-09T23:45:40.940Z,99.90
2023-05-09T23:48:08.010Z,99.90
2023-05-09T23:50:35.516Z,99.90
2023-05-09T23:53:04.872Z,99.90
2023-05-09T23:55:32.696Z,99.90
2023-05-09T23:58:02.425Z,99.90
